Mc Connellstown, Pennsylvania
Current Conditions -  °F | °C
As of 1:53 AM on Thursday 23 Oct 2014 (Local Time) from KAOO Reporting Station
Overcast Overcast  
Wind Chill: 41°   Ceiling: 1600
Heat Index: 46°   Visibility: 10mi
Dew Point: 40°   Wind: 9mph
Humidity: 79%   Direction: 340°NNW
Pressure: 30.02"   Gusts: NA
Location:  40.4547°N, 78.0835°W
Report Text: KAOO 230553Z AUTO 34008KT 10SM OVC016 08/04 A3002 RMK AO2 SLP172 T00780044 10089 20078 58013
Loading
Personal Weather Stations






























Interactive Weather Map
Tropical Storm Tracking
New forecast layout! Learn more

10-Day Weather Forecast

Advertisements
Track Severe Weather on mobile